createdAt,value
2022-11-29T00:01:03.399Z,79.07
2022-11-29T00:03:30.949Z,79.16
2022-11-29T00:06:05.134Z,79.31
2022-11-29T00:08:31.982Z,79.08
2022-11-29T00:11:06.786Z,79.50
2022-11-29T00:13:33.874Z,79.53
2022-11-29T00:16:06.664Z,79.30
2022-11-29T00:18:34.473Z,79.64
2022-11-29T00:21:08.615Z,79.04
2022-11-29T00:23:35.941Z,79.20
2022-11-29T00:26:07.346Z,79.48
2022-11-29T00:28:36.164Z,78.93
2022-11-29T00:31:25.054Z,79.25
2022-11-29T00:33:53.089Z,79.21
2022-11-29T00:36:20.903Z,79.24
2022-11-29T00:38:47.835Z,79.73
2022-11-29T00:41:14.750Z,79.55
2022-11-29T00:43:41.822Z,79.42
2022-11-29T00:46:09.075Z,79.26
2022-11-29T00:48:36.924Z,80.03
2022-11-29T00:51:05.218Z,79.42
2022-11-29T00:53:33.177Z,79.31
2022-11-29T00:56:00.030Z,79.89
2022-11-29T00:58:26.970Z,79.96
2022-11-29T01:00:54.211Z,79.64
2022-11-29T01:03:21.994Z,79.25
2022-11-29T01:05:49.202Z,80.18
2022-11-29T01:08:16.488Z,80.19
2022-11-29T01:10:43.577Z,80.40
2022-11-29T01:13:11.174Z,80.10
2022-11-29T01:15:38.632Z,80.16
2022-11-29T01:18:05.573Z,80.37
2022-11-29T01:20:32.544Z,80.33
2022-11-29T01:22:59.465Z,79.83
2022-11-29T01:25:26.487Z,80.48
2022-11-29T01:27:54.165Z,80.39
2022-11-29T01:30:21.588Z,81.40
2022-11-29T01:32:48.488Z,81.51
2022-11-29T01:35:15.267Z,81.22
2022-11-29T01:37:42.157Z,81.90
2022-11-29T01:40:09.303Z,82.30
2022-11-29T01:42:36.121Z,82.64
2022-11-29T01:45:08.536Z,82.96
2022-11-29T01:47:43.448Z,82.81
2022-11-29T01:50:11.188Z,83.18
2022-11-29T01:52:38.529Z,83.61
2022-11-29T01:55:07.818Z,82.73
2022-11-29T01:57:37.426Z,83.42
2022-11-29T02:00:12.784Z,84.02
2022-11-29T02:02:45.531Z,84.53
2022-11-29T02:05:15.207Z,83.47
2022-11-29T02:07:46.447Z,84.06
2022-11-29T02:10:15.959Z,84.13
2022-11-29T02:13:00.517Z,83.80
2022-11-29T02:15:30.382Z,83.68
2022-11-29T02:18:06.837Z,84.71
2022-11-29T02:20:53.710Z,83.73
2022-11-29T02:23:39.723Z,84.35
2022-11-29T02:26:52.048Z,83.97
2022-11-29T02:29:31.007Z,83.11
2022-11-29T02:32:00.848Z,83.69
2022-11-29T02:34:43.311Z,83.65
2022-11-29T02:37:29.100Z,83.55
2022-11-29T02:40:01.985Z,84.13
2022-11-29T02:42:56.885Z,84.39
2022-11-29T02:46:01.711Z,84.73
2022-11-29T02:48:53.576Z,84.20
2022-11-29T02:51:35.553Z,84.58
2022-11-29T02:54:58.081Z,84.86
2022-11-29T02:57:30.603Z,84.83
2022-11-29T03:00:10.449Z,85.31
2022-11-29T03:02:46.312Z,85.38
2022-11-29T03:05:19.298Z,85.75
2022-11-29T03:08:07.461Z,85.19
2022-11-29T03:10:57.273Z,85.66
2022-11-29T03:13:36.065Z,85.31
2022-11-29T03:16:17.374Z,85.43
2022-11-29T03:19:00.207Z,85.36
2022-11-29T03:21:56.698Z,85.19
2022-11-29T03:24:37.221Z,85.96
2022-11-29T03:27:11.921Z,85.78
2022-11-29T03:29:51.948Z,86.35
2022-11-29T03:32:18.824Z,85.14
2022-11-29T03:35:04.579Z,84.88
2022-11-29T03:37:40.526Z,85.83
2022-11-29T03:40:19.036Z,86.16
2022-11-29T03:42:56.669Z,85.14
2022-11-29T03:45:42.808Z,85.85
2022-11-29T03:48:13.734Z,85.01
2022-11-29T03:51:21.171Z,85.91
2022-11-29T03:53:54.485Z,85.22
2022-11-29T03:56:34.337Z,85.42
2022-11-29T03:59:19.607Z,86.47
2022-11-29T04:01:49.926Z,86.42
2022-11-29T04:04:38.547Z,84.97
2022-11-29T04:07:19.902Z,83.91
2022-11-29T04:10:24.614Z,82.45
2022-11-29T04:13:25.467Z,82.48
2022-11-29T04:16:11.500Z,82.23
2022-11-29T04:19:08.756Z,81.85
2022-11-29T04:22:05.877Z,81.53
2022-11-29T04:24:59.122Z,81.50
2022-11-29T04:27:44.052Z,81.68
2022-11-29T04:30:14.616Z,80.89
2022-11-29T04:32:56.513Z,81.35
2022-11-29T04:35:48.765Z,81.35
2022-11-29T04:38:15.738Z,81.84
2022-11-29T04:41:03.277Z,81.48
2022-11-29T04:43:40.051Z,81.68
2022-11-29T04:46:37.654Z,81.39
2022-11-29T04:49:07.677Z,81.83
2022-11-29T04:51:53.526Z,81.13
2022-11-29T04:54:45.011Z,81.30
2022-11-29T04:57:28.517Z,80.99
2022-11-29T05:00:11.799Z,81.57
2022-11-29T05:02:56.488Z,83.21
2022-11-29T05:05:55.868Z,81.31
2022-11-29T05:08:46.322Z,83.13
2022-11-29T05:11:25.055Z,82.25
2022-11-29T05:14:15.798Z,81.96
2022-11-29T05:17:01.579Z,81.76
2022-11-29T05:19:53.057Z,82.55
2022-11-29T05:22:38.285Z,82.57
2022-11-29T05:25:47.788Z,82.44
2022-11-29T05:28:59.306Z,81.57
2022-11-29T05:31:55.417Z,83.24
2022-11-29T05:34:35.227Z,82.59
2022-11-29T05:37:31.858Z,81.43
2022-11-29T05:40:09.960Z,82.83
2022-11-29T05:43:04.244Z,82.51
2022-11-29T05:45:48.898Z,80.63
2022-11-29T05:48:25.015Z,81.02
2022-11-29T05:51:20.136Z,81.29
2022-11-29T05:54:06.049Z,80.06
2022-11-29T05:56:59.864Z,82.35
2022-11-29T05:59:33.697Z,80.63
2022-11-29T06:02:12.960Z,80.97
2022-11-29T06:05:01.236Z,80.47
2022-11-29T06:07:55.972Z,81.92
2022-11-29T06:10:33.286Z,80.19
2022-11-29T06:13:11.457Z,80.35
2022-11-29T06:16:06.202Z,80.91
2022-11-29T06:18:45.839Z,80.76
2022-11-29T06:21:51.557Z,80.69
2022-11-29T06:24:46.142Z,80.47
2022-11-29T06:27:41.025Z,79.80
2022-11-29T06:30:10.787Z,80.12
2022-11-29T06:32:47.925Z,80.41
2022-11-29T06:35:27.477Z,79.67
2022-11-29T06:37:59.447Z,80.22
2022-11-29T06:40:26.873Z,78.57
2022-11-29T06:42:54.292Z,78.12
2022-11-29T06:45:24.667Z,76.68
2022-11-29T06:48:04.156Z,73.58
2022-11-29T06:50:49.778Z,72.88
2022-11-29T06:53:43.534Z,72.68
2022-11-29T06:56:48.737Z,72.52
2022-11-29T06:59:41.927Z,73.99
2022-11-29T07:02:46.445Z,75.00
2022-11-29T07:05:16.988Z,75.17
2022-11-29T07:07:44.522Z,75.53
2022-11-29T07:10:27.445Z,75.97
2022-11-29T07:12:55.518Z,75.30
2022-11-29T07:15:23.597Z,76.13
2022-11-29T07:18:31.246Z,76.90
2022-11-29T07:21:09.331Z,72.77
2022-11-29T07:23:45.849Z,65.99
2022-11-29T07:26:40.374Z,62.79
2022-11-29T07:29:23.822Z,58.48
2022-11-29T07:32:38.013Z,52.18
2022-11-29T07:35:19.388Z,49.27
2022-11-29T07:38:01.445Z,47.77
2022-11-29T07:40:37.840Z,45.98
2022-11-29T07:43:19.128Z,49.25
2022-11-29T07:45:48.036Z,55.61
2022-11-29T07:48:16.840Z,58.72
2022-11-29T07:51:04.105Z,59.03
2022-11-29T07:53:45.934Z,64.85
2022-11-29T07:56:14.342Z,62.71
2022-11-29T07:58:43.227Z,65.13
2022-11-29T08:01:10.711Z,65.31
2022-11-29T08:03:45.058Z,66.68
2022-11-29T08:06:19.164Z,67.41
2022-11-29T08:11:48.772Z,70.58
2022-11-29T08:20:20.396Z,70.68
2022-11-29T08:26:15.585Z,72.18
2022-11-29T08:37:39.585Z,74.47
2022-11-29T08:40:16.377Z,73.60
2022-11-29T08:43:32.915Z,74.59
2022-11-29T08:46:20.615Z,76.79
2022-11-29T08:48:50.634Z,75.40
2022-11-29T08:51:23.467Z,75.28
2022-11-29T08:54:13.782Z,76.05
2022-11-29T08:59:34.229Z,74.69
2022-11-29T09:02:12.933Z,74.40
2022-11-29T09:04:51.242Z,74.13
2022-11-29T09:07:19.392Z,74.54
2022-11-29T09:10:19.893Z,74.76
2022-11-29T09:12:47.070Z,74.78
2022-11-29T09:15:18.989Z,74.35
2022-11-29T09:17:50.631Z,74.31
2022-11-29T09:20:32.830Z,73.38
2022-11-29T09:23:16.501Z,73.16
2022-11-29T09:25:52.366Z,74.89
2022-11-29T09:28:23.589Z,74.10
2022-11-29T09:30:52.834Z,74.43
2022-11-29T09:33:21.918Z,74.29
2022-11-29T09:35:50.570Z,73.73
2022-11-29T09:38:34.493Z,73.19
2022-11-29T09:41:40.323Z,73.79
2022-11-29T09:44:37.080Z,73.17
2022-11-29T09:47:44.553Z,73.70
2022-11-29T09:50:24.432Z,73.19
2022-11-29T09:53:05.109Z,73.26
2022-11-29T09:59:41.791Z,72.36
2022-11-29T10:02:56.845Z,72.52
2022-11-29T10:05:55.883Z,73.66
2022-11-29T10:08:44.838Z,74.35
2022-11-29T10:11:57.717Z,74.65
2022-11-29T10:14:35.720Z,74.46
2022-11-29T10:17:38.982Z,74.74
2022-11-29T10:20:51.183Z,73.46
2022-11-29T10:23:41.003Z,74.70
2022-11-29T10:26:09.463Z,73.43
2022-11-29T10:28:39.394Z,74.08
2022-11-29T10:31:35.540Z,73.27
2022-11-29T10:34:14.142Z,72.11
2022-11-29T10:37:04.453Z,74.13
2022-11-29T10:40:00.218Z,74.05
2022-11-29T10:42:53.932Z,74.07
2022-11-29T10:45:53.753Z,74.11
2022-11-29T10:48:47.789Z,72.64
2022-11-29T10:51:20.044Z,71.21
2022-11-29T10:53:57.574Z,72.96
2022-11-29T10:56:29.945Z,73.97
2022-11-29T10:59:10.565Z,72.95
2022-11-29T11:01:45.788Z,72.49
2022-11-29T11:04:44.722Z,73.23
2022-11-29T11:07:43.752Z,72.71
2022-11-29T11:10:55.392Z,71.79
2022-11-29T11:13:32.654Z,72.18
2022-11-29T11:16:17.456Z,72.00
2022-11-29T11:22:12.021Z,72.47
2022-11-29T11:24:48.224Z,72.01
2022-11-29T11:27:31.813Z,73.28
2022-11-29T11:30:32.204Z,70.92
2022-11-29T11:33:44.613Z,70.64
2022-11-29T11:36:44.583Z,69.86
2022-11-29T11:39:23.190Z,71.14
2022-11-29T11:42:11.323Z,68.98
2022-11-29T11:44:57.627Z,69.10
2022-11-29T11:47:46.945Z,68.15
2022-11-29T11:50:56.482Z,68.07
2022-11-29T11:53:53.716Z,67.87
2022-11-29T11:56:36.699Z,67.95
2022-11-29T12:02:03.603Z,68.54
2022-11-29T12:04:43.663Z,68.88
2022-11-29T12:10:42.639Z,69.54
2022-11-29T12:14:14.803Z,69.05
2022-11-29T12:19:35.872Z,69.01
2022-11-29T12:22:20.206Z,68.79
2022-11-29T12:25:01.353Z,67.86
2022-11-29T12:27:28.453Z,67.59
2022-11-29T12:29:56.535Z,68.55
2022-11-29T12:32:38.791Z,67.43
2022-11-29T12:35:37.002Z,67.63
2022-11-29T12:38:36.269Z,68.81
2022-11-29T12:41:15.764Z,69.33
2022-11-29T12:44:15.092Z,68.61
2022-11-29T12:46:48.438Z,70.20
2022-11-29T12:49:45.250Z,72.33
2022-11-29T12:52:30.900Z,72.66
2022-11-29T12:55:16.468Z,71.53
2022-11-29T12:57:43.627Z,71.53
2022-11-29T13:00:16.684Z,70.85
2022-11-29T13:03:07.705Z,70.51
2022-11-29T13:05:50.731Z,70.62
2022-11-29T13:08:54.564Z,71.08
2022-11-29T13:11:42.952Z,71.55
2022-11-29T13:14:43.175Z,71.31
2022-11-29T13:17:45.754Z,73.65
2022-11-29T13:20:31.314Z,72.11
2022-11-29T13:23:45.644Z,73.37
2022-11-29T13:26:14.279Z,72.87
2022-11-29T13:28:43.114Z,79.28
2022-11-29T13:31:16.080Z,71.11
2022-11-29T13:33:50.077Z,71.81
2022-11-29T13:36:23.060Z,72.06
2022-11-29T13:39:13.592Z,72.20
2022-11-29T13:42:10.739Z,74.07
2022-11-29T13:44:55.883Z,72.34
2022-11-29T13:47:23.026Z,72.96
2022-11-29T13:49:59.428Z,72.74
2022-11-29T13:52:44.919Z,73.28
2022-11-29T13:55:29.197Z,72.62
2022-11-29T13:58:22.758Z,72.85
2022-11-29T14:00:51.883Z,73.62
2022-11-29T14:03:26.380Z,73.47
2022-11-29T14:06:03.225Z,73.09
2022-11-29T14:09:17.207Z,73.37
2022-11-29T14:11:59.203Z,74.07
2022-11-29T14:14:39.275Z,74.47
2022-11-29T14:17:27.687Z,74.69
2022-11-29T14:20:23.429Z,74.43
2022-11-29T14:23:05.547Z,99.74
2022-11-29T14:26:02.225Z,73.44
2022-11-29T14:28:32.352Z,74.37
2022-11-29T14:31:02.743Z,74.05
2022-11-29T14:34:00.612Z,74.40
2022-11-29T14:36:38.258Z,74.79
2022-11-29T14:39:13.831Z,74.39
2022-11-29T14:41:49.513Z,74.92
2022-11-29T14:44:22.166Z,74.57
2022-11-29T14:46:59.529Z,75.08
2022-11-29T14:49:29.130Z,75.23
2022-11-29T14:52:28.168Z,75.45
2022-11-29T14:55:08.592Z,76.30
2022-11-29T14:57:48.031Z,76.79
2022-11-29T15:00:16.911Z,76.42
2022-11-29T15:02:52.423Z,76.18
2022-11-29T15:05:33.319Z,77.14
2022-11-29T15:08:15.285Z,76.85
2022-11-29T15:10:54.578Z,79.79
2022-11-29T15:13:29.257Z,78.50
2022-11-29T15:16:17.561Z,76.40
2022-11-29T15:19:15.049Z,77.82
2022-11-29T15:21:57.017Z,76.75
2022-11-29T15:24:28.178Z,76.34
2022-11-29T15:27:03.301Z,76.30
2022-11-29T15:29:31.541Z,75.98
2022-11-29T15:32:04.252Z,76.43
2022-11-29T15:34:51.927Z,76.60
2022-11-29T15:37:42.758Z,77.39
2022-11-29T15:40:19.130Z,77.03
2022-11-29T15:43:10.043Z,77.41
2022-11-29T15:45:39.646Z,77.47
2022-11-29T15:48:27.569Z,78.04
2022-11-29T15:51:22.700Z,78.32
2022-11-29T15:54:12.770Z,81.24
2022-11-29T15:56:47.096Z,79.25
2022-11-29T15:59:37.238Z,78.98
2022-11-29T16:02:20.710Z,78.85
2022-11-29T16:04:52.244Z,78.56
2022-11-29T16:07:22.272Z,78.59
2022-11-29T16:09:55.402Z,78.94
2022-11-29T16:12:22.555Z,78.50
2022-11-29T16:14:52.944Z,79.30
2022-11-29T16:17:21.223Z,79.30
2022-11-29T16:19:48.364Z,79.61
2022-11-29T16:22:23.974Z,79.35
2022-11-29T16:25:08.002Z,79.01
2022-11-29T16:27:36.463Z,79.71
2022-11-29T16:30:05.189Z,80.16
2022-11-29T16:32:38.094Z,80.40
2022-11-29T16:35:17.022Z,80.83
2022-11-29T16:37:46.559Z,80.23
2022-11-29T16:40:28.500Z,81.26
2022-11-29T16:43:04.519Z,81.03
2022-11-29T16:45:38.027Z,80.86
2022-11-29T16:48:29.291Z,80.79
2022-11-29T16:51:13.716Z,80.35
2022-11-29T16:53:42.917Z,80.26
2022-11-29T16:56:22.129Z,80.52
2022-11-29T16:59:24.597Z,80.63
2022-11-29T17:01:48.377Z,79.66
2022-11-29T17:04:23.484Z,80.48
2022-11-29T17:06:56.500Z,81.61
2022-11-29T17:09:27.574Z,80.07
2022-11-29T17:12:03.282Z,79.98
2022-11-29T17:14:31.909Z,79.98
2022-11-29T17:17:02.448Z,79.68
2022-11-29T17:19:30.603Z,80.10
2022-11-29T17:21:58.453Z,79.57
2022-11-29T17:24:25.538Z,80.28
2022-11-29T17:26:52.791Z,81.19
2022-11-29T17:29:19.838Z,82.01
2022-11-29T17:31:48.199Z,81.39
2022-11-29T17:34:15.413Z,81.37
2022-11-29T17:36:42.338Z,81.79
2022-11-29T17:39:09.491Z,81.43
2022-11-29T17:41:36.515Z,80.78
2022-11-29T17:44:03.841Z,81.44
2022-11-29T17:46:37.213Z,81.44
2022-11-29T17:49:07.491Z,80.70
2022-11-29T17:51:54.157Z,81.08
2022-11-29T17:54:22.502Z,80.75
2022-11-29T17:56:50.133Z,80.34
2022-11-29T17:59:17.248Z,80.39
2022-11-29T18:01:47.675Z,80.24
2022-11-29T18:04:14.760Z,80.36
2022-11-29T18:06:42.467Z,79.73
2022-11-29T18:09:11.473Z,79.40
2022-11-29T18:11:47.602Z,79.83
2022-11-29T18:14:23.071Z,79.28
2022-11-29T18:16:50.396Z,80.00
2022-11-29T18:19:21.054Z,79.46
2022-11-29T18:21:49.863Z,79.67
2022-11-29T18:24:17.535Z,79.75
2022-11-29T18:26:46.422Z,79.96
2022-11-29T18:29:13.340Z,80.40
2022-11-29T18:31:43.198Z,80.63
2022-11-29T18:34:11.838Z,80.57
2022-11-29T18:36:48.376Z,81.18
2022-11-29T18:39:17.172Z,82.10
2022-11-29T18:41:47.132Z,82.73
2022-11-29T18:44:15.977Z,81.00
2022-11-29T18:46:44.787Z,79.88
2022-11-29T18:49:17.408Z,81.18
2022-11-29T18:51:46.087Z,80.22
2022-11-29T18:54:17.957Z,81.63
2022-11-29T18:56:45.639Z,81.81
2022-11-29T18:59:17.613Z,81.50
2022-11-29T19:01:47.856Z,82.46
2022-11-29T19:04:18.197Z,81.73
2022-11-29T19:06:45.647Z,82.42
2022-11-29T19:09:15.142Z,82.43
2022-11-29T19:11:45.871Z,83.20
2022-11-29T19:14:13.737Z,82.32
2022-11-29T19:16:43.961Z,82.23
2022-11-29T19:19:11.364Z,82.10
2022-11-29T19:21:40.219Z,82.00
2022-11-29T19:24:14.360Z,82.34
2022-11-29T19:26:44.685Z,81.45
2022-11-29T19:29:12.971Z,82.39
2022-11-29T19:31:40.273Z,82.47
2022-11-29T19:34:07.309Z,83.27
2022-11-29T19:36:34.701Z,82.44
2022-11-29T19:39:02.525Z,83.36
2022-11-29T19:41:32.476Z,83.38
2022-11-29T19:44:01.456Z,82.59
2022-11-29T19:46:33.657Z,83.09
2022-11-29T19:49:01.886Z,83.42
2022-11-29T19:51:30.141Z,83.02
2022-11-29T19:53:59.872Z,82.34
2022-11-29T19:56:28.863Z,83.30
2022-11-29T19:58:56.782Z,82.72
2022-11-29T20:01:28.177Z,83.92
2022-11-29T20:03:59.003Z,83.41
2022-11-29T20:06:30.269Z,83.26
2022-11-29T20:08:58.424Z,83.14
2022-11-29T20:11:27.084Z,82.95
2022-11-29T20:13:59.455Z,82.94
2022-11-29T20:16:28.209Z,82.97
2022-11-29T20:18:56.271Z,83.18
2022-11-29T20:21:25.434Z,83.13
2022-11-29T20:23:57.801Z,82.77
2022-11-29T20:26:26.190Z,82.70
2022-11-29T20:28:53.742Z,84.42
2022-11-29T20:34:26.444Z,82.69
2022-11-29T20:52:04.342Z,83.20
2022-11-29T20:54:31.522Z,81.69
2022-11-29T21:08:43.307Z,80.81
2022-11-29T21:11:11.309Z,80.64
2022-11-29T21:13:39.303Z,79.60
2022-11-29T21:16:07.251Z,80.24
2022-11-29T21:24:58.637Z,78.52
2022-11-29T21:47:01.406Z,78.17
2022-11-29T21:52:22.260Z,77.61
2022-11-29T21:54:50.327Z,77.64
2022-11-29T21:57:17.678Z,77.41
2022-11-29T22:13:09.686Z,78.02
2022-11-29T22:15:36.755Z,77.66
2022-11-29T22:18:03.815Z,78.21
2022-11-29T22:20:30.775Z,78.10
2022-11-29T22:22:58.913Z,78.25
2022-11-29T22:25:26.150Z,78.13
2022-11-29T22:27:53.064Z,77.49
2022-11-29T22:33:34.706Z,77.61
2022-11-29T22:36:12.640Z,77.36
2022-11-29T22:38:40.893Z,77.79
2022-11-29T22:41:11.422Z,77.71
2022-11-29T22:43:40.539Z,78.23
2022-11-29T23:12:11.099Z,77.56
2022-11-29T23:14:38.164Z,77.37
2022-11-29T23:17:05.289Z,77.68
2022-11-29T23:19:32.489Z,78.18
2022-11-29T23:21:59.643Z,77.46
2022-11-29T23:24:26.801Z,77.38
2022-11-29T23:26:53.806Z,77.50
2022-11-29T23:29:20.944Z,77.46
2022-11-29T23:31:48.413Z,77.64
2022-11-29T23:34:15.541Z,77.47
